createdAt,value
2017-03-15T00:00:42.881Z,0
2017-03-15T00:01:53.435Z,0
2017-03-15T00:03:03.438Z,0
2017-03-15T00:04:13.742Z,0
2017-03-15T00:05:24.077Z,0
2017-03-15T00:06:34.385Z,0
2017-03-15T00:07:44.983Z,0
2017-03-15T00:08:54.980Z,0
2017-03-15T00:10:05.262Z,0
2017-03-15T00:11:15.549Z,0
2017-03-15T00:12:25.563Z,0
2017-03-15T00:13:35.850Z,0
2017-03-15T00:14:46.155Z,0
2017-03-15T00:15:56.138Z,0
2017-03-15T00:17:06.449Z,0
2017-03-15T00:18:16.762Z,0
2017-03-15T00:19:27.025Z,0
2017-03-15T00:20:37.312Z,0
2017-03-15T00:21:47.608Z,0
2017-03-15T00:22:57.610Z,0
2017-03-15T00:24:07.906Z,0
2017-03-15T00:25:18.458Z,0
2017-03-15T00:26:28.759Z,0
2017-03-15T00:27:38.763Z,0
2017-03-15T00:28:49.073Z,0
2017-03-15T00:29:59.065Z,0
2017-03-15T00:31:09.636Z,0
2017-03-15T00:32:19.970Z,0
2017-03-15T00:33:29.969Z,0
2017-03-15T00:34:40.314Z,0
2017-03-15T00:35:50.737Z,0
2017-03-15T00:37:01.339Z,0
2017-03-15T00:38:11.652Z,0
2017-03-15T00:39:21.957Z,0
2017-03-15T00:40:31.940Z,0
2017-03-15T00:41:42.244Z,0
2017-03-15T00:42:52.797Z,0
2017-03-15T00:44:02.785Z,0
2017-03-15T00:45:12.787Z,0
2017-03-15T00:46:23.088Z,0
2017-03-15T00:47:33.098Z,0
2017-03-15T00:48:43.662Z,0
2017-03-15T00:49:53.646Z,0
2017-03-15T00:51:03.336Z,0
2017-03-15T00:52:13.335Z,0
2017-03-15T00:53:23.327Z,0
2017-03-15T00:54:33.623Z,0
2017-03-15T00:55:43.940Z,0
2017-03-15T00:56:53.924Z,0
2017-03-15T00:58:03.930Z,0
2017-03-15T00:59:14.235Z,0
2017-03-15T01:00:24.784Z,0
2017-03-15T01:01:35.113Z,0
2017-03-15T01:02:45.461Z,0
2017-03-15T01:03:55.463Z,0
2017-03-15T01:05:05.771Z,0
2017-03-15T01:06:16.331Z,0
2017-03-15T01:07:26.632Z,0
2017-03-15T01:08:36.936Z,0
2017-03-15T01:09:47.238Z,0
2017-03-15T01:10:57.543Z,0
2017-03-15T01:12:08.118Z,0
2017-03-15T01:13:18.113Z,0
2017-03-15T01:14:28.414Z,0
2017-03-15T01:15:38.400Z,0
2017-03-15T01:16:48.696Z,0
2017-03-15T01:17:58.939Z,0
2017-03-15T01:19:09.236Z,0
2017-03-15T01:20:19.232Z,0
2017-03-15T01:21:29.553Z,0
2017-03-15T01:22:39.853Z,0
2017-03-15T01:23:50.466Z,0
2017-03-15T01:25:00.755Z,0
2017-03-15T01:26:10.738Z,0
2017-03-15T01:27:21.053Z,0
2017-03-15T01:28:31.354Z,0
2017-03-15T01:29:41.951Z,0
2017-03-15T01:30:52.263Z,0
2017-03-15T01:32:02.594Z,0
2017-03-15T01:33:12.580Z,0
2017-03-15T01:34:22.569Z,0
2017-03-15T01:35:33.131Z,0
2017-03-15T01:36:43.115Z,0
2017-03-15T01:37:53.438Z,0
2017-03-15T01:39:03.111Z,0
2017-03-15T01:40:13.409Z,0
2017-03-15T01:41:23.649Z,0
2017-03-15T01:42:33.950Z,0
2017-03-15T01:43:43.934Z,0
2017-03-15T01:44:53.925Z,0
2017-03-15T01:46:03.917Z,0
2017-03-15T01:47:14.152Z,0
2017-03-15T01:48:24.136Z,0
2017-03-15T01:49:34.128Z,0
2017-03-15T01:50:44.433Z,0
2017-03-15T01:51:54.724Z,0
2017-03-15T01:53:05.281Z,0
2017-03-15T01:54:15.290Z,0
2017-03-15T01:55:25.586Z,0
2017-03-15T01:56:35.898Z,0
2017-03-15T01:57:46.199Z,0
2017-03-15T01:58:56.762Z,0
2017-03-15T02:00:07.076Z,0
2017-03-15T02:01:17.373Z,0
2017-03-15T02:02:27.671Z,0
2017-03-15T02:03:37.975Z,0
2017-03-15T02:04:48.241Z,0
2017-03-15T02:05:58.557Z,0
2017-03-15T02:07:08.548Z,0
2017-03-15T02:08:18.842Z,0
2017-03-15T02:09:28.829Z,0
2017-03-15T02:10:39.383Z,0
2017-03-15T02:11:49.063Z,0
2017-03-15T02:12:59.364Z,0
2017-03-15T02:14:09.027Z,0
2017-03-15T02:15:19.332Z,0
2017-03-15T02:16:29.622Z,0
2017-03-15T02:17:39.930Z,0
2017-03-15T02:18:49.904Z,0
2017-03-15T02:20:00.294Z,0
2017-03-15T02:21:09.972Z,0
2017-03-15T02:22:20.266Z,0
2017-03-15T02:23:30.565Z,0
2017-03-15T02:24:40.869Z,0
2017-03-15T02:25:50.878Z,0
2017-03-15T02:27:00.865Z,0
2017-03-15T02:28:11.412Z,0
2017-03-15T02:29:21.722Z,0
2017-03-15T02:30:32.029Z,0
2017-03-15T02:31:42.323Z,0
2017-03-15T02:32:52.614Z,0
2017-03-15T02:34:02.842Z,0
2017-03-15T02:35:12.822Z,0
2017-03-15T02:36:23.124Z,0
2017-03-15T02:37:33.414Z,0
2017-03-15T02:38:43.409Z,0
2017-03-15T02:39:53.659Z,0
2017-03-15T02:41:03.985Z,0
2017-03-15T02:42:14.293Z,0
2017-03-15T02:43:24.276Z,0
2017-03-15T02:44:34.267Z,0
2017-03-15T02:45:44.513Z,0
2017-03-15T02:46:54.816Z,0
2017-03-15T02:48:05.117Z,0
2017-03-15T02:49:15.108Z,0
2017-03-15T02:50:25.404Z,0
2017-03-15T02:51:35.668Z,0
2017-03-15T02:52:45.968Z,0
2017-03-15T02:53:56.282Z,0
2017-03-15T02:55:06.590Z,0
2017-03-15T02:56:16.894Z,0
2017-03-15T02:57:27.129Z,0
2017-03-15T02:58:37.452Z,0
2017-03-15T02:59:47.767Z,0
2017-03-15T03:00:57.771Z,0
2017-03-15T03:02:07.769Z,0
2017-03-15T03:03:17.704Z,0
2017-03-15T03:04:28.027Z,0
2017-03-15T03:05:38.333Z,0
2017-03-15T03:06:48.317Z,0
2017-03-15T03:07:58.628Z,0
2017-03-15T03:09:09.233Z,0
2017-03-15T03:10:19.230Z,0
2017-03-15T03:11:28.894Z,0
2017-03-15T03:12:38.577Z,0
2017-03-15T03:13:48.890Z,0
2017-03-15T03:14:58.836Z,0
2017-03-15T03:16:08.837Z,0
2017-03-15T03:17:19.169Z,0
2017-03-15T03:18:29.486Z,0
2017-03-15T03:19:39.169Z,0
2017-03-15T03:20:49.415Z,0
2017-03-15T03:21:59.396Z,0
2017-03-15T03:23:09.067Z,0
2017-03-15T03:24:19.370Z,0
2017-03-15T03:25:29.372Z,0
2017-03-15T03:26:39.974Z,0
2017-03-15T03:27:50.281Z,0
2017-03-15T03:29:00.266Z,0
2017-03-15T03:30:10.247Z,0
2017-03-15T03:31:20.247Z,0
2017-03-15T03:32:30.227Z,0
2017-03-15T03:33:40.576Z,0
2017-03-15T03:34:50.425Z,0
2017-03-15T03:36:00.409Z,0
2017-03-15T03:37:10.701Z,0
2017-03-15T03:38:21.299Z,0
2017-03-15T03:39:31.610Z,0
2017-03-15T03:40:41.617Z,0
2017-03-15T03:41:51.927Z,0
2017-03-15T03:43:01.924Z,0
2017-03-15T03:44:12.160Z,0
2017-03-15T03:45:22.148Z,0
2017-03-15T03:46:32.474Z,0
2017-03-15T03:47:42.145Z,0
2017-03-15T03:48:52.454Z,0
2017-03-15T03:50:03.053Z,0
2017-03-15T03:51:12.727Z,0
2017-03-15T03:52:22.724Z,0
2017-03-15T03:53:33.060Z,0
2017-03-15T03:54:43.368Z,0
2017-03-15T03:55:53.620Z,0
2017-03-15T03:57:03.955Z,0
2017-03-15T03:58:14.253Z,0
2017-03-15T03:59:24.554Z,0
2017-03-15T04:00:34.537Z,0
2017-03-15T04:01:44.769Z,0
2017-03-15T04:02:55.069Z,0
2017-03-15T04:04:04.765Z,0
2017-03-15T04:05:14.442Z,0
2017-03-15T04:06:24.760Z,0
2017-03-15T04:07:34.997Z,0
2017-03-15T04:08:45.297Z,0
2017-03-15T04:09:55.286Z,0
2017-03-15T04:11:05.625Z,0
2017-03-15T04:12:15.940Z,0
2017-03-15T04:13:26.189Z,0
2017-03-15T04:14:36.221Z,0
2017-03-15T04:15:46.529Z,0
2017-03-15T04:16:56.515Z,0
2017-03-15T04:18:06.820Z,0
2017-03-15T04:19:17.367Z,0
2017-03-15T04:20:27.673Z,0
2017-03-15T04:21:37.961Z,0
2017-03-15T04:22:47.950Z,0
2017-03-15T04:23:58.271Z,0
2017-03-15T04:25:08.871Z,0
2017-03-15T04:26:18.846Z,0
2017-03-15T04:27:29.149Z,0
2017-03-15T04:28:39.457Z,0
2017-03-15T04:29:49.763Z,0
2017-03-15T04:31:00.308Z,0
2017-03-15T04:32:10.295Z,0
2017-03-15T04:33:20.599Z,0
2017-03-15T04:34:30.593Z,0
2017-03-15T04:35:40.593Z,0
2017-03-15T04:36:51.191Z,0
2017-03-15T04:38:01.196Z,0
2017-03-15T04:39:11.492Z,0
2017-03-15T04:40:21.802Z,0
2017-03-15T04:41:32.108Z,0
2017-03-15T04:42:42.701Z,0
2017-03-15T04:43:52.999Z,0
2017-03-15T04:45:02.991Z,0
2017-03-15T04:46:13.303Z,0
2017-03-15T04:47:23.287Z,0
2017-03-15T04:48:33.828Z,0
2017-03-15T04:49:43.818Z,0
2017-03-15T04:50:54.016Z,0
2017-03-15T04:52:04.330Z,0
2017-03-15T04:53:14.326Z,0
2017-03-15T04:54:24.926Z,0
2017-03-15T04:55:35.226Z,0
2017-03-15T04:56:45.537Z,0
2017-03-15T04:57:55.514Z,0
2017-03-15T04:59:05.815Z,0
2017-03-15T05:00:16.061Z,0
2017-03-15T05:01:26.365Z,0
2017-03-15T05:02:36.676Z,0
2017-03-15T05:03:46.983Z,0
2017-03-15T05:04:56.976Z,0
2017-03-15T05:06:07.587Z,4
2017-03-15T05:07:17.879Z,4
2017-03-15T05:08:27.890Z,8
2017-03-15T05:09:38.193Z,8
2017-03-15T05:10:48.507Z,8
2017-03-15T05:11:59.073Z,8
2017-03-15T05:13:09.373Z,12
2017-03-15T05:14:19.057Z,16
2017-03-15T05:15:29.069Z,12
2017-03-15T05:16:39.376Z,16
2017-03-15T05:17:49.990Z,20
2017-03-15T05:19:00.281Z,16
2017-03-15T05:20:10.269Z,20
2017-03-15T05:21:20.254Z,20
2017-03-15T05:22:30.245Z,20
2017-03-15T05:23:40.483Z,24
2017-03-15T05:24:50.499Z,24
2017-03-15T05:26:00.794Z,32
2017-03-15T05:27:10.797Z,32
2017-03-15T05:28:21.105Z,40
2017-03-15T05:29:31.671Z,44
2017-03-15T05:30:41.665Z,48
2017-03-15T05:31:51.975Z,52
2017-03-15T05:33:01.658Z,56
2017-03-15T05:34:11.351Z,64
2017-03-15T05:35:21.951Z,68
2017-03-15T05:36:32.258Z,72
2017-03-15T05:37:42.251Z,80
2017-03-15T05:38:52.234Z,76
2017-03-15T05:40:02.225Z,80
2017-03-15T05:41:12.831Z,80
2017-03-15T05:42:23.133Z,80
2017-03-15T05:43:33.441Z,84
2017-03-15T05:44:43.441Z,88
2017-03-15T05:45:53.748Z,96
2017-03-15T05:47:03.987Z,104
2017-03-15T05:48:14.278Z,108
2017-03-15T05:49:24.580Z,120
2017-03-15T05:50:34.895Z,132
2017-03-15T05:51:45.202Z,148
2017-03-15T05:52:55.812Z,164
2017-03-15T05:54:06.129Z,184
2017-03-15T05:55:16.128Z,208
2017-03-15T05:56:26.122Z,236
2017-03-15T05:57:35.788Z,248
2017-03-15T05:58:46.349Z,268
2017-03-15T05:59:56.666Z,296
2017-03-15T06:01:06.663Z,312
2017-03-15T06:02:17.276Z,324
2017-03-15T06:03:27.283Z,344
2017-03-15T06:04:37.895Z,344
2017-03-15T06:05:48.206Z,348
2017-03-15T06:06:58.499Z,376
2017-03-15T06:08:08.490Z,428
2017-03-15T06:09:18.484Z,448
2017-03-15T06:10:28.730Z,448
2017-03-15T06:11:38.738Z,480
2017-03-15T06:12:49.062Z,532
2017-03-15T06:13:59.075Z,564
2017-03-15T06:15:09.402Z,580
2017-03-15T06:16:19.991Z,588
2017-03-15T06:17:29.686Z,604
2017-03-15T06:18:40.032Z,632
2017-03-15T06:19:50.338Z,644
2017-03-15T06:21:00.643Z,668
2017-03-15T06:22:10.890Z,672
2017-03-15T06:23:21.207Z,672
2017-03-15T06:24:30.896Z,692
2017-03-15T06:25:40.973Z,700
2017-03-15T06:26:51.323Z,700
2017-03-15T06:28:01.600Z,708
2017-03-15T06:29:11.930Z,704
2017-03-15T06:30:22.275Z,696
2017-03-15T06:31:32.613Z,672
2017-03-15T06:32:42.945Z,672
2017-03-15T06:33:53.207Z,696
2017-03-15T06:35:03.216Z,704
2017-03-15T06:36:13.216Z,728
2017-03-15T06:37:23.568Z,732
2017-03-15T06:38:33.880Z,716
2017-03-15T06:39:44.183Z,736
2017-03-15T06:40:54.185Z,724
2017-03-15T06:42:04.539Z,736
2017-03-15T06:43:14.870Z,764
2017-03-15T06:44:24.859Z,772
2017-03-15T06:45:35.099Z,748
2017-03-15T06:46:45.432Z,716
2017-03-15T06:47:55.754Z,648
2017-03-15T06:49:06.071Z,640
2017-03-15T06:50:16.413Z,736
2017-03-15T06:51:26.666Z,784
2017-03-15T06:52:36.986Z,704
2017-03-15T06:53:47.353Z,660
2017-03-15T06:54:57.662Z,744
2017-03-15T06:56:07.962Z,928
2017-03-15T06:57:18.535Z,1072
2017-03-15T06:58:28.842Z,1412
2017-03-15T06:59:38.835Z,1496
2017-03-15T07:00:49.159Z,1504
2017-03-15T07:01:59.501Z,1036
2017-03-15T07:03:09.782Z,916
2017-03-15T07:04:19.778Z,660
2017-03-15T07:05:30.093Z,756
2017-03-15T07:06:40.102Z,712
2017-03-15T07:07:50.106Z,552
2017-03-15T07:09:00.688Z,632
2017-03-15T07:10:10.378Z,584
2017-03-15T07:11:20.689Z,596
2017-03-15T07:12:30.695Z,520
2017-03-15T07:13:41.012Z,756
2017-03-15T07:14:51.271Z,1012
2017-03-15T07:16:01.266Z,1172
2017-03-15T07:17:11.609Z,988
2017-03-15T07:18:21.987Z,748
2017-03-15T07:19:32.310Z,776
2017-03-15T07:20:42.876Z,580
2017-03-15T07:21:52.874Z,544
2017-03-15T07:23:03.203Z,744
2017-03-15T07:24:13.524Z,1132
2017-03-15T07:25:23.843Z,1616
2017-03-15T07:26:34.105Z,952
2017-03-15T07:27:44.135Z,1052
2017-03-15T07:28:54.488Z,1188
2017-03-15T07:30:04.518Z,1368
2017-03-15T07:31:14.554Z,1692
2017-03-15T07:32:25.122Z,1180
2017-03-15T07:33:35.452Z,792
2017-03-15T07:34:45.495Z,800
2017-03-15T07:35:55.844Z,852
2017-03-15T07:37:06.186Z,852
2017-03-15T07:38:16.750Z,928
2017-03-15T07:39:27.075Z,932
2017-03-15T07:40:37.089Z,920
2017-03-15T07:41:47.456Z,1060
2017-03-15T07:42:57.773Z,1384
2017-03-15T07:44:08.034Z,1488
2017-03-15T07:45:17.725Z,1832
2017-03-15T07:46:28.058Z,2008
2017-03-15T07:47:38.413Z,1416
2017-03-15T07:48:48.719Z,1040
2017-03-15T07:49:59.361Z,1192
2017-03-15T07:51:09.409Z,1376
2017-03-15T07:52:19.439Z,2192
2017-03-15T07:53:29.840Z,1504
2017-03-15T07:54:39.866Z,1256
2017-03-15T07:55:50.526Z,1028
2017-03-15T07:57:00.887Z,1100
2017-03-15T07:58:10.620Z,1264
2017-03-15T07:59:21.139Z,1588
2017-03-15T08:00:31.526Z,1628
2017-03-15T08:01:41.526Z,1280
2017-03-15T08:02:51.957Z,1312
2017-03-15T08:04:02.278Z,1192
2017-03-15T08:05:12.612Z,1440
2017-03-15T08:06:22.359Z,1560
2017-03-15T08:07:33.011Z,1568
2017-03-15T08:08:43.339Z,1420
2017-03-15T08:09:53.664Z,1348
2017-03-15T08:11:03.687Z,1344
2017-03-15T08:12:14.052Z,1440
2017-03-15T08:13:24.655Z,1480
2017-03-15T08:14:34.659Z,1460
2017-03-15T08:15:44.986Z,1420
2017-03-15T08:16:55.001Z,1272
2017-03-15T08:18:05.328Z,1188
2017-03-15T08:19:15.904Z,1276
2017-03-15T08:20:26.243Z,1260
2017-03-15T08:21:36.577Z,1432
2017-03-15T08:22:46.896Z,1208
2017-03-15T08:23:57.169Z,1172
2017-03-15T08:25:07.818Z,1096
2017-03-15T08:26:18.239Z,1120
2017-03-15T08:27:28.677Z,1236
2017-03-15T08:28:38.755Z,1380
2017-03-15T08:29:48.843Z,1248
2017-03-15T08:30:59.173Z,1212
2017-03-15T08:32:09.513Z,1188
2017-03-15T08:33:19.818Z,1188
2017-03-15T08:34:29.811Z,1196
2017-03-15T08:35:40.138Z,1224
2017-03-15T08:36:50.806Z,1232
2017-03-15T08:38:00.812Z,1232
2017-03-15T08:39:11.117Z,1220
2017-03-15T08:40:21.146Z,1224
2017-03-15T08:41:31.468Z,1248
2017-03-15T08:42:41.459Z,1212
2017-03-15T08:43:51.801Z,1304
2017-03-15T08:45:02.121Z,1280
2017-03-15T08:46:12.429Z,1280
2017-03-15T08:47:22.755Z,1340
2017-03-15T08:48:33.379Z,1512
2017-03-15T08:49:43.965Z,1668
2017-03-15T08:50:54.288Z,1796
2017-03-15T08:52:04.612Z,1596
2017-03-15T08:53:14.936Z,1500
2017-03-15T08:54:25.578Z,1480
2017-03-15T08:55:35.982Z,1464
2017-03-15T08:56:45.360Z,1588
2017-03-15T08:57:55.686Z,1632
2017-03-15T08:59:06.028Z,1688
2017-03-15T09:00:16.271Z,1688
2017-03-15T09:01:26.266Z,1460
2017-03-15T09:02:36.589Z,1356
2017-03-15T09:03:46.896Z,1404
2017-03-15T09:04:56.585Z,1404
2017-03-15T09:06:07.170Z,1384
2017-03-15T09:07:17.481Z,1276
2017-03-15T09:08:27.491Z,1428
2017-03-15T09:09:37.808Z,1312
2017-03-15T09:10:48.109Z,1200
2017-03-15T09:11:58.344Z,1192
2017-03-15T09:13:08.679Z,1284
2017-03-15T09:14:18.989Z,1304
2017-03-15T09:15:29.312Z,1344
2017-03-15T09:16:39.649Z,1424
2017-03-15T09:17:50.277Z,1512
2017-03-15T09:19:00.600Z,1320
2017-03-15T09:20:10.937Z,1188
2017-03-15T09:21:20.975Z,1268
2017-03-15T09:22:31.288Z,1332
2017-03-15T09:23:40.929Z,1264
2017-03-15T09:24:50.624Z,1352
2017-03-15T09:26:00.948Z,1340
2017-03-15T09:27:11.245Z,1284
2017-03-15T09:28:21.587Z,1284
2017-03-15T09:29:32.183Z,1412
2017-03-15T09:30:42.512Z,1356
2017-03-15T09:31:52.839Z,1412
2017-03-15T09:33:03.221Z,1804
2017-03-15T09:34:13.235Z,2236
2017-03-15T09:35:23.884Z,2268
2017-03-15T09:36:34.208Z,2448
2017-03-15T09:37:44.561Z,1964
2017-03-15T09:38:54.887Z,1948
2017-03-15T09:40:04.934Z,1712
2017-03-15T09:41:15.196Z,1552
2017-03-15T09:42:25.516Z,1432
2017-03-15T09:43:35.832Z,1508
2017-03-15T09:44:46.166Z,1348
2017-03-15T09:45:56.154Z,1264
2017-03-15T09:47:06.474Z,1248
2017-03-15T09:48:16.493Z,1256
2017-03-15T09:49:26.220Z,1328
2017-03-15T09:50:36.552Z,1484
2017-03-15T09:51:47.376Z,1432
2017-03-15T09:52:57.713Z,1628
2017-03-15T09:54:08.086Z,1756
2017-03-15T09:55:18.391Z,1848
2017-03-15T09:56:28.851Z,2100
2017-03-15T09:57:39.441Z,2460
2017-03-15T09:58:49.855Z,2728
2017-03-15T10:00:00.211Z,2580
2017-03-15T10:01:10.571Z,2828
2017-03-15T10:02:20.906Z,2484
2017-03-15T10:03:31.541Z,1992
2017-03-15T10:04:41.876Z,2124
2017-03-15T10:05:51.900Z,1968
2017-03-15T10:07:02.248Z,1828
2017-03-15T10:08:12.625Z,1956
2017-03-15T10:09:23.287Z,1704
2017-03-15T10:10:33.856Z,1948
2017-03-15T10:11:43.847Z,2412
2017-03-15T10:12:54.326Z,2712
2017-03-15T10:14:04.758Z,2612
2017-03-15T10:15:15.315Z,2408
2017-03-15T10:16:25.353Z,2572
2017-03-15T10:17:35.689Z,2216
2017-03-15T10:18:46.022Z,1992
2017-03-15T10:19:56.374Z,2180
2017-03-15T10:21:06.937Z,2048
2017-03-15T10:22:17.241Z,1860
2017-03-15T10:23:26.963Z,1592
2017-03-15T10:24:36.762Z,1640
2017-03-15T10:25:46.787Z,1424
2017-03-15T10:26:57.023Z,1336
2017-03-15T10:28:06.408Z,1348
2017-03-15T10:29:16.763Z,1304
2017-03-15T10:30:27.335Z,1360
2017-03-15T10:31:37.657Z,1444
2017-03-15T10:32:47.955Z,1408
2017-03-15T10:33:58.029Z,1264
2017-03-15T10:35:08.593Z,1300
2017-03-15T10:36:18.937Z,1224
2017-03-15T10:37:29.087Z,1248
2017-03-15T10:38:39.656Z,1272
2017-03-15T10:39:50.035Z,1300
2017-03-15T10:41:00.383Z,1336
2017-03-15T10:42:10.708Z,1376
2017-03-15T10:43:20.750Z,1428
2017-03-15T10:44:30.768Z,1440
2017-03-15T10:45:41.083Z,1364
2017-03-15T10:46:50.777Z,1432
2017-03-15T10:48:00.790Z,1308
2017-03-15T10:49:10.813Z,1452
2017-03-15T10:50:21.184Z,1760
2017-03-15T10:51:31.764Z,2208
2017-03-15T10:52:41.801Z,2636
2017-03-15T10:53:52.133Z,2012
2017-03-15T10:55:02.713Z,1536
2017-03-15T10:56:12.738Z,1412
2017-03-15T10:57:23.050Z,1436
2017-03-15T10:58:33.055Z,1496
2017-03-15T10:59:43.404Z,1644
2017-03-15T11:00:53.669Z,1500
2017-03-15T11:02:03.436Z,1420
2017-03-15T11:03:13.842Z,1528
2017-03-15T11:04:24.181Z,1600
2017-03-15T11:05:34.199Z,1532
2017-03-15T11:06:44.793Z,1428
2017-03-15T11:07:55.113Z,1468
2017-03-15T11:09:05.098Z,1560
2017-03-15T11:10:15.101Z,1464
2017-03-15T11:11:25.423Z,1636
2017-03-15T11:12:36.066Z,1972
2017-03-15T11:13:45.760Z,1920
2017-03-15T11:14:55.803Z,1416
2017-03-15T11:16:05.508Z,1256
2017-03-15T11:17:15.849Z,1196
2017-03-15T11:18:25.803Z,1136
2017-03-15T11:19:36.121Z,1112
2017-03-15T11:20:46.452Z,1100
2017-03-15T11:21:56.449Z,1120
2017-03-15T11:23:06.802Z,1308
2017-03-15T11:24:17.071Z,1200
2017-03-15T11:25:27.062Z,1144
2017-03-15T11:26:37.405Z,1248
2017-03-15T11:27:47.704Z,1332
2017-03-15T11:28:57.703Z,1168
2017-03-15T11:30:08.275Z,1104
2017-03-15T11:31:18.278Z,1072
2017-03-15T11:32:28.275Z,1060
2017-03-15T11:33:38.272Z,1024
2017-03-15T11:34:48.282Z,908
2017-03-15T11:35:58.884Z,892
2017-03-15T11:37:08.957Z,880
2017-03-15T11:38:19.350Z,856
2017-03-15T11:39:29.681Z,880
2017-03-15T11:40:40.036Z,984
2017-03-15T11:41:50.283Z,984
2017-03-15T11:42:59.972Z,980
2017-03-15T11:44:09.964Z,984
2017-03-15T11:45:19.351Z,992
2017-03-15T11:46:29.699Z,1060
2017-03-15T11:47:39.944Z,1324
2017-03-15T11:48:49.633Z,1604
2017-03-15T11:49:59.661Z,1596
2017-03-15T11:51:09.662Z,1304
2017-03-15T11:52:19.670Z,1096
2017-03-15T11:53:29.967Z,1004
2017-03-15T11:54:39.956Z,988
2017-03-15T11:55:49.665Z,984
2017-03-15T11:56:59.659Z,972
2017-03-15T11:58:09.653Z,956
2017-03-15T11:59:20.204Z,948
2017-03-15T12:00:29.884Z,944
2017-03-15T12:01:39.922Z,944
2017-03-15T12:02:49.611Z,940
2017-03-15T12:03:59.926Z,940
2017-03-15T12:05:10.498Z,948
2017-03-15T12:06:20.822Z,964
2017-03-15T12:07:31.138Z,980
2017-03-15T12:08:40.821Z,980
2017-03-15T12:09:51.131Z,968
2017-03-15T12:11:01.695Z,960
2017-03-15T12:12:12.000Z,960
2017-03-15T12:13:21.971Z,952
2017-03-15T12:14:32.274Z,948
2017-03-15T12:15:42.568Z,944
2017-03-15T12:16:53.167Z,940
2017-03-15T12:18:03.151Z,940
2017-03-15T12:19:13.136Z,936
2017-03-15T12:20:23.449Z,936
2017-03-15T12:21:33.737Z,940
2017-03-15T12:22:44.357Z,956
2017-03-15T12:23:54.338Z,924
2017-03-15T12:25:04.680Z,920
2017-03-15T12:26:14.992Z,916
2017-03-15T12:27:25.295Z,912
2017-03-15T12:28:35.852Z,916
2017-03-15T12:29:46.185Z,924
2017-03-15T12:30:55.917Z,924
2017-03-15T12:32:05.606Z,916
2017-03-15T12:33:15.908Z,908
2017-03-15T12:34:26.169Z,900
2017-03-15T12:35:36.485Z,884
2017-03-15T12:36:46.492Z,912
2017-03-15T12:37:56.809Z,876
2017-03-15T12:39:07.135Z,836
2017-03-15T12:40:17.715Z,904
2017-03-15T12:41:27.706Z,892
2017-03-15T12:42:38.000Z,828
2017-03-15T12:43:48.356Z,900
2017-03-15T12:44:58.696Z,888
2017-03-15T12:46:09.315Z,912
2017-03-15T12:47:19.628Z,904
2017-03-15T12:48:29.926Z,972
2017-03-15T12:49:40.250Z,880
2017-03-15T12:50:50.287Z,900
2017-03-15T12:52:00.268Z,912
2017-03-15T12:53:10.339Z,904
2017-03-15T12:54:21.759Z,904
2017-03-15T12:55:32.995Z,904
2017-03-15T12:56:43.301Z,908
2017-03-15T12:57:53.939Z,912
2017-03-15T12:59:03.994Z,916
2017-03-15T13:00:14.300Z,904
2017-03-15T13:01:24.317Z,900
2017-03-15T13:02:34.636Z,896
2017-03-15T13:03:44.953Z,896
2017-03-15T13:04:55.276Z,892
2017-03-15T13:06:04.978Z,888
2017-03-15T13:07:15.289Z,888
2017-03-15T13:08:25.587Z,884
2017-03-15T13:09:36.165Z,880
2017-03-15T13:10:46.505Z,880
2017-03-15T13:11:56.821Z,872
2017-03-15T13:13:06.812Z,876
2017-03-15T13:14:17.126Z,872
2017-03-15T13:15:28.268Z,872
2017-03-15T13:16:38.590Z,876
2017-03-15T13:17:48.300Z,876
2017-03-15T13:18:58.293Z,872
2017-03-15T13:20:08.789Z,868
2017-03-15T13:21:19.040Z,868
2017-03-15T13:22:28.735Z,868
2017-03-15T13:23:38.735Z,860
2017-03-15T13:24:48.739Z,852
2017-03-15T13:25:58.739Z,852
2017-03-15T13:27:08.979Z,852
2017-03-15T13:28:19.283Z,852
2017-03-15T13:29:29.595Z,848
2017-03-15T13:30:39.595Z,844
2017-03-15T13:31:49.591Z,836
2017-03-15T13:33:00.162Z,836
2017-03-15T13:34:10.153Z,836
2017-03-15T13:35:20.582Z,832
2017-03-15T13:36:30.936Z,832
2017-03-15T13:37:41.349Z,828
2017-03-15T13:38:51.904Z,824
2017-03-15T13:40:01.974Z,824
2017-03-15T13:41:11.960Z,828
2017-03-15T13:42:22.283Z,828
2017-03-15T13:43:32.603Z,824
2017-03-15T13:44:43.363Z,824
2017-03-15T13:45:53.698Z,824
2017-03-15T13:47:04.308Z,820
2017-03-15T13:48:14.632Z,824
2017-03-15T13:49:24.951Z,824
2017-03-15T13:50:35.263Z,820
2017-03-15T13:51:45.616Z,816
2017-03-15T13:52:55.996Z,816
2017-03-15T13:54:06.322Z,812
2017-03-15T13:55:16.632Z,816
2017-03-15T13:56:27.215Z,820
2017-03-15T13:57:37.566Z,820
2017-03-15T13:58:47.948Z,824
2017-03-15T13:59:58.040Z,824
2017-03-15T14:01:08.424Z,820
2017-03-15T14:02:18.748Z,816
2017-03-15T14:03:29.047Z,812
2017-03-15T14:04:39.373Z,804
2017-03-15T14:05:49.661Z,792
2017-03-15T14:06:59.962Z,784
2017-03-15T14:08:10.507Z,780
2017-03-15T14:09:20.179Z,776
2017-03-15T14:10:30.544Z,768
2017-03-15T14:11:40.539Z,764
2017-03-15T14:12:50.851Z,764
2017-03-15T14:14:01.407Z,764
2017-03-15T14:15:11.420Z,764
2017-03-15T14:16:21.858Z,760
2017-03-15T14:17:32.148Z,756
2017-03-15T14:18:42.444Z,756
2017-03-15T14:19:52.375Z,752
2017-03-15T14:21:02.669Z,752
2017-03-15T14:22:12.978Z,752
2017-03-15T14:23:23.269Z,752
2017-03-15T14:24:33.590Z,756
2017-03-15T14:25:43.839Z,756
2017-03-15T14:26:53.842Z,756
2017-03-15T14:28:03.831Z,756
2017-03-15T14:29:14.130Z,752
2017-03-15T14:30:24.456Z,744
2017-03-15T14:31:35.029Z,744
2017-03-15T14:32:45.032Z,740
2017-03-15T14:33:55.343Z,736
2017-03-15T14:35:05.665Z,732
2017-03-15T14:36:15.667Z,728
2017-03-15T14:37:26.216Z,720
2017-03-15T14:38:36.200Z,720
2017-03-15T14:39:46.197Z,716
2017-03-15T14:40:56.498Z,716
2017-03-15T14:42:06.826Z,712
2017-03-15T14:43:17.084Z,708
2017-03-15T14:44:27.388Z,708
2017-03-15T14:45:37.693Z,704
2017-03-15T14:46:48.002Z,700
2017-03-15T14:47:57.998Z,704
2017-03-15T14:49:08.242Z,700
2017-03-15T14:50:18.555Z,696
2017-03-15T14:59:34.703Z,676
2017-03-15T15:00:44.690Z,676
2017-03-15T15:01:54.687Z,672
2017-03-15T15:03:04.361Z,672
2017-03-15T15:04:14.661Z,668
2017-03-15T15:05:25.296Z,668
2017-03-15T15:06:35.619Z,660
2017-03-15T15:07:45.972Z,656
2017-03-15T15:08:56.274Z,656
2017-03-15T15:10:05.941Z,656
2017-03-15T15:11:16.171Z,652
2017-03-15T15:12:26.475Z,656
2017-03-15T15:13:36.769Z,656
2017-03-15T15:14:46.769Z,652
2017-03-15T15:15:57.080Z,656
2017-03-15T15:17:07.332Z,652
2017-03-15T15:18:17.643Z,652
2017-03-15T15:19:27.986Z,652
2017-03-15T15:20:38.318Z,648
2017-03-15T15:21:48.312Z,644
2017-03-15T15:22:58.888Z,640
2017-03-15T15:24:09.199Z,644
2017-03-15T15:25:19.583Z,640
2017-03-15T15:26:29.916Z,632
2017-03-15T15:27:39.893Z,632
2017-03-15T15:28:50.502Z,628
2017-03-15T15:30:00.834Z,624
2017-03-15T15:31:10.826Z,612
2017-03-15T15:32:21.140Z,608
2017-03-15T15:33:31.465Z,608
2017-03-15T15:34:42.043Z,604
2017-03-15T15:35:52.344Z,588
2017-03-15T15:37:02.649Z,600
2017-03-15T15:38:12.632Z,596
2017-03-15T15:39:22.635Z,596
2017-03-15T15:40:33.246Z,588
2017-03-15T15:41:43.538Z,588
2017-03-15T15:42:53.529Z,580
2017-03-15T15:44:03.534Z,572
2017-03-15T15:45:13.543Z,560
2017-03-15T15:46:24.188Z,552
2017-03-15T15:47:34.485Z,544
2017-03-15T15:48:44.797Z,552
2017-03-15T15:49:55.131Z,552
2017-03-15T15:51:05.432Z,552
2017-03-15T15:52:20.194Z,540
2017-03-15T15:53:30.501Z,540
2017-03-15T15:54:40.804Z,536
2017-03-15T15:55:51.125Z,536
2017-03-15T15:57:01.435Z,528
2017-03-15T15:58:12.033Z,524
2017-03-15T15:59:22.329Z,516
2017-03-15T16:00:32.634Z,520
2017-03-15T16:01:42.939Z,512
2017-03-15T16:02:53.242Z,500
2017-03-15T16:04:03.842Z,496
2017-03-15T16:05:14.142Z,488
2017-03-15T16:06:24.137Z,480
2017-03-15T16:07:34.437Z,472
2017-03-15T16:08:44.749Z,464
2017-03-15T16:09:55.358Z,448
2017-03-15T16:11:05.651Z,444
2017-03-15T16:12:15.948Z,432
2017-03-15T16:13:26.261Z,416
2017-03-15T16:14:36.565Z,408
2017-03-15T16:15:50.834Z,412
2017-03-15T16:17:01.148Z,404
2017-03-15T16:18:11.451Z,392
2017-03-15T16:19:21.452Z,384
2017-03-15T16:20:31.431Z,376
2017-03-15T16:21:42.027Z,364
2017-03-15T16:22:52.335Z,352
2017-03-15T16:24:02.645Z,332
2017-03-15T16:25:12.953Z,324
2017-03-15T16:26:23.262Z,312
2017-03-15T16:27:33.566Z,300
2017-03-15T16:28:43.560Z,288